Terminal Aerodrome Forecast
Issued by NWS Blacksburg, VA

Home | Current Version | Previous Version | Text Only | Print | Product List | Glossary On
Versions: 1 2 3 4 5 6 7 8 9 10 11 12 13 14 15 16 17 18 19 20 21
000
FTUS41 KRNK 061132
TAFBLF
TAF
KBLF 061132Z 0612/0712 30008KT 4SM BR OVC005
     FM061500 32010G18KT P6SM SCT004 OVC010
     FM061800 33013G23KT P6SM -SHRA OVC030
     FM062300 30009KT P6SM BKN035
     FM070400 30008KT P6SM SCT035=

USA.gov is the U.S. government's official web portal to all federal, state and local government web resources and services.